Lpg_melina — SYFW — position and weather

sailwx.info

Track history (hours):
 
Tides and Currents Weather Stations Pressure Air Temp Water Temp Dewpoint Dewpoint Depression Visibility Wind Speed Wind Dir Waves Ship Positions

Lpg_melina

Last reported at 2017-Nov-20 00:28 UTC. Time now 2017-Nov-22 16:39 UTC.
Position N 38°01' E 023°32'.

Length 114 m; draft 5.1 m.

Type: Ship (hazmat cat A). MMSI: 239953000.

Date/timePositionNaut miles runAvg speedWind from/ knotsBaromVisibWave heightAir tempDewpointWater temp
2017-Nov-20 00:28N 38°01' E 023°32'0 0.0
2017-Nov-19 23:58N 38°01' E 023°32'0 0.0
2017-Nov-19 23:28N 38°01' E 023°32'0 0.0
2017-Nov-19 22:58N 38°01' E 023°32'0 0.0
2017-Nov-19 22:29N 38°01' E 023°32'0 0.0
2017-Nov-19 21:58N 38°01' E 023°32'0 0.1
2017-Nov-19 21:28N 38°01' E 023°32'0 0.0
2017-Nov-19 20:58N 38°01' E 023°32'0 0.0
2017-Nov-19 20:28N 38°01' E 023°32'0 0.0
2017-Nov-19 19:58N 38°01' E 023°32'0 0.0
2017-Nov-19 19:25N 38°01' E 023°32'0 0.0
2017-Nov-19 18:59N 38°01' E 023°32'0 0.0
2017-Nov-19 18:28N 38°01' E 023°32'0 0.0
2017-Nov-19 17:58N 38°01' E 023°32'0 0.0
2017-Nov-19 17:28N 38°01' E 023°32'0 0.0
2017-Nov-19 16:59N 38°01' E 023°32'0 0.0
2017-Nov-19 16:28N 38°01' E 023°32'0 0.1
2017-Nov-19 15:58N 38°01' E 023°32'0 0.0
2017-Nov-19 15:25N 38°01' E 023°32'0 0.0
2017-Nov-19 14:58N 38°01' E 023°32'0 0.0
2017-Nov-19 14:28N 38°01' E 023°32'0 0.0
2017-Nov-19 13:59N 38°01' E 023°32'0 0.0
2017-Nov-19 13:28N 38°01' E 023°32'0 0.0
2017-Nov-19 12:56N 38°01' E 023°32'0 0.0
2017-Nov-19 12:28N 38°01' E 023°32'0 0.0
2017-Nov-19 11:58N 38°01' E 023°31'0 0.0
2017-Nov-19 11:28N 38°01' E 023°32'0 0.0
2017-Nov-19 10:55N 38°01' E 023°31'0 0.0
2017-Nov-19 10:28N 38°01' E 023°31'0 0.0
2017-Nov-19 09:58N 38°01' E 023°31'0 0.1
2017-Nov-19 09:29N 38°01' E 023°31'0 0.3
2017-Nov-19 09:00N 38°01' E 023°32'4 7.7
2017-Nov-19 08:30N 37°57' E 023°33'3 6.7
2017-Nov-19 08:00N 37°55' E 023°36'1 2.2
2017-Nov-19 07:30N 37°54' E 023°36'5 9.2
2017-Nov-19 07:00N 37°50' E 023°39'611.8
2017-Nov-19 06:30N 37°45' E 023°43'611.5
2017-Nov-19 05:59N 37°40' E 023°47'  
2017-Nov-15 21:17N 37°44' E 024°18'1010.4
2017-Nov-15 20:18N 37°38' E 024°08'16 9.6
2017-Nov-15 18:41N 37°38' E 023°48'2 9.9
2017-Nov-15 18:30N 37°38' E 023°46'5 9.4
2017-Nov-15 18:00N 37°41' E 023°42'510.0
2017-Nov-15 17:30N 37°46' E 023°39'510.0
2017-Nov-15 17:00N 37°51' E 023°37'510.5
2017-Nov-15 16:30N 37°56' E 023°36'4 8.3
2017-Nov-15 16:00N 37°59' E 023°33'3 1.6
2017-Nov-15 13:54N 38°02' E 023°36'0 0.0
2017-Nov-15 13:18N 38°02' E 023°36'0 0.0
2017-Nov-15 13:00N 38°02' E 023°36'0 0.0
2017-Nov-15 11:54N 38°02' E 023°36'0 0.0
2017-Nov-15 11:30N 38°02' E 023°36'0 0.0
2017-Nov-15 10:00N 38°02' E 023°36'0 0.0
2017-Nov-15 09:00N 38°02' E 023°36'0 0.0
2017-Nov-15 08:30N 38°02' E 023°36'0 0.0
2017-Nov-15 07:54N 38°02' E 023°36'0 0.0
2017-Nov-15 06:18N 38°02' E 023°36'0 0.0
2017-Nov-15 05:54N 38°02' E 023°36'0 0.0
2017-Nov-15 05:18N 38°02' E 023°36'0 0.0
2017-Nov-15 05:00N 38°02' E 023°36'0 0.0
2017-Nov-15 04:30N 38°02' E 023°36'0 0.0
2017-Nov-15 03:48N 38°02' E 023°36'0 0.0
2017-Nov-15 03:30N 38°02' E 023°36'0 0.0
2017-Nov-15 03:00N 38°02' E 023°36'0 0.0
2017-Nov-15 02:30N 38°02' E 023°36'0 0.0
2017-Nov-15 01:54N 38°02' E 023°36'0 0.0
2017-Nov-15 01:27N 38°02' E 023°36'0 0.0
2017-Nov-15 01:00N 38°02' E 023°36'0 0.0
2017-Nov-15 00:30N 38°02' E 023°36'0 0.0
2017-Nov-14 23:51N 38°02' E 023°36'0 0.0
2017-Nov-14 23:27N 38°02' E 023°36'0 0.0
2017-Nov-14 22:57N 38°02' E 023°36'0 0.0
2017-Nov-14 22:27N 38°02' E 023°36'0 0.0
2017-Nov-14 22:00N 38°02' E 023°36'0 0.0
2017-Nov-14 21:27N 38°02' E 023°36'0 0.0
2017-Nov-14 20:57N 38°02' E 023°36'0 0.0
2017-Nov-14 18:03N 38°02' E 023°36'0 0.0
2017-Nov-14 17:34N 38°02' E 023°36'0 0.4
2017-Nov-14 17:30N 38°02' E 023°36'2 3.6
2017-Nov-14 17:00N 38°01' E 023°34'2 3.7
2017-Nov-14 16:30N 38°01' E 023°31'0 0.1
2017-Nov-14 15:59N 38°01' E 023°31'0 0.2
2017-Nov-14 15:29N 38°01' E 023°31'0 0.2
2017-Nov-14 14:59N 38°01' E 023°31'0 0.1
2017-Nov-14 14:29N 38°01' E 023°31'0 0.1
2017-Nov-14 13:59N 38°01' E 023°31'0 0.0
2017-Nov-14 13:29N 38°01' E 023°31'0 0.0
2017-Nov-14 12:59N 38°01' E 023°31'0 0.0
2017-Nov-14 12:26N 38°01' E 023°31'0 0.0
2017-Nov-14 11:59N 38°01' E 023°31'0 0.2
2017-Nov-14 11:29N 38°01' E 023°31'0 0.0
2017-Nov-14 10:59N 38°01' E 023°31'0 0.0
2017-Nov-14 10:29N 38°01' E 023°31'0 0.1
2017-Nov-14 09:58N 38°01' E 023°31'0 0.1
2017-Nov-14 09:28N 38°01' E 023°31'0 0.1
2017-Nov-14 08:58N 38°01' E 023°31'0 0.8
2017-Nov-14 08:30N 38°01' E 023°32'4 7.2
2017-Nov-14 08:01N 37°58' E 023°33'4 8.7
2017-Nov-14 07:30N 37°54' E 023°36'611.4
2017-Nov-14 07:00N 37°49' E 023°40'611.9
2017-Nov-14 06:30N 37°44' E 023°43'611.5
2017-Nov-14 06:00N 37°40' E 023°48'611.7
2017-Nov-14 05:29N 37°38' E 023°56'811.7
2017-Nov-14 04:49N 37°37' E 024°05'1111.5
2017-Nov-14 03:51N 37°44' E 024°16'811.7
2017-Nov-14 03:12N 37°49' E 024°23'  
2017-Nov-11 20:36N 38°49' E 024°04'210.6
2017-Nov-11 20:27N 38°48' E 024°06'64 9.2
2017-Nov-11 13:25N 37°44' E 024°18'2510.1
2017-Nov-11 10:58N 37°38' E 023°47'4 9.6
2017-Nov-11 10:30N 37°40' E 023°42'510.5
2017-Nov-11 10:00N 37°45' E 023°40'510.8
2017-Nov-11 09:30N 37°50' E 023°37'511.0
2017-Nov-11 09:00N 37°56' E 023°36'4 8.3
2017-Nov-11 08:31N 37°59' E 023°33'4 7.7
2017-Nov-11 08:01N 38°02' E 023°36'0 0.0
2017-Nov-11 07:24N 38°02' E 023°36'0 0.0
2017-Nov-11 06:57N 38°02' E 023°36'0 0.0
2017-Nov-11 06:27N 38°02' E 023°36'0 0.0
2017-Nov-11 05:57N 38°02' E 023°36'0 0.0
2017-Nov-11 05:30N 38°02' E 023°36'0 0.0
2017-Nov-11 04:57N 38°02' E 023°36'0 0.0
2017-Nov-11 04:15N 38°02' E 023°36'0 0.0
2017-Nov-11 03:45N 38°02' E 023°36'0 0.0
2017-Nov-11 02:45N 38°02' E 023°36'0 0.0
2017-Nov-11 02:27N 38°02' E 023°36'0 0.0
2017-Nov-11 02:00N 38°02' E 023°36'0 0.0
2017-Nov-11 01:30N 38°02' E 023°36'0 0.0
2017-Nov-11 01:00N 38°02' E 023°36'0 0.0
2017-Nov-11 00:18N 38°02' E 023°36'0 0.0
2017-Nov-11 00:00N 38°02' E 023°36'0 0.0
2017-Nov-10 23:30N 38°02' E 023°36'0 0.0
2017-Nov-10 23:00N 38°02' E 023°36'0 0.0
2017-Nov-10 22:27N 38°02' E 023°36'0 0.0
2017-Nov-10 21:57N 38°02' E 023°36'0 0.0
2017-Nov-10 21:15N 38°02' E 023°36'0 0.0
2017-Nov-10 20:57N 38°02' E 023°36'0 0.0
2017-Nov-10 20:21N 38°02' E 023°36'0 0.0
2017-Nov-10 19:51N 38°02' E 023°36'0 0.0
2017-Nov-10 19:09N 38°02' E 023°36'0 0.0
2017-Nov-10 18:39N 38°02' E 023°36'0 0.0
2017-Nov-10 18:15N 38°02' E 023°36'0 0.0
2017-Nov-10 17:51N 38°02' E 023°36'0 0.0
2017-Nov-10 13:10N 38°02' E 023°36'0 0.0
2017-Nov-10 13:00N 38°02' E 023°36'0 0.0
2017-Nov-10 12:30N 38°02' E 023°36'0 0.0
2017-Nov-10 12:00N 38°02' E 023°36'0 0.0
2017-Nov-10 11:30N 38°02' E 023°36'0 0.0
2017-Nov-10 11:00N 38°02' E 023°36'0 0.1
2017-Nov-10 10:30N 38°02' E 023°36'3 5.3
2017-Nov-10 10:00N 38°01' E 023°32'1 2.0
2017-Nov-10 09:28N 38°02' E 023°31'0 0.0
2017-Nov-10 08:58N 38°02' E 023°31'0 0.0
2017-Nov-10 08:28N 38°02' E 023°31'0 0.1
2017-Nov-10 07:58N 38°02' E 023°31'0 0.0
2017-Nov-10 07:28N 38°02' E 023°31'0 0.0
2017-Nov-10 06:58N 38°02' E 023°31'0 0.1
2017-Nov-10 06:25N 38°02' E 023°31'0 0.0
2017-Nov-10 05:58N 38°02' E 023°31'0 0.1
2017-Nov-10 05:28N 38°02' E 023°31'0 0.0
2017-Nov-10 04:58N 38°02' E 023°31'0 0.1
2017-Nov-10 04:28N 38°02' E 023°31'0 0.1
2017-Nov-10 03:58N 38°02' E 023°31'0 0.0
2017-Nov-10 03:28N 38°02' E 023°31'0 0.0
2017-Nov-10 02:58N 38°02' E 023°31'0 0.0
2017-Nov-10 02:28N 38°02' E 023°31'0 0.1
2017-Nov-10 01:58N 38°02' E 023°31'0 0.0
2017-Nov-10 01:28N 38°02' E 023°31'0 0.0
2017-Nov-10 00:58N 38°02' E 023°31'  
Track history (hours):
 
Tides and Currents Weather Stations Pressure Air Temp Water Temp Dewpoint Dewpoint Depression Visibility Wind Speed Wind Dir Waves Ship Positions

Lpg_melina

Last reported at 2017-Nov-20 00:28 UTC. Time now 2017-Nov-22 16:39 UTC.
Position N 38°01' E 023°32'.

Length 114 m; draft 5.1 m.

Type: Ship (hazmat cat A). MMSI: 239953000.

Date/timePositionNaut miles runAvg speedWind from/ knotsBaromVisibWave heightAir tempDewpointWater temp
2017-Nov-20 00:28N 38°01' E 023°32'0 0.0
2017-Nov-19 23:58N 38°01' E 023°32'0 0.0
2017-Nov-19 23:28N 38°01' E 023°32'0 0.0
2017-Nov-19 22:58N 38°01' E 023°32'0 0.0
2017-Nov-19 22:29N 38°01' E 023°32'0 0.0
2017-Nov-19 21:58N 38°01' E 023°32'0 0.1
2017-Nov-19 21:28N 38°01' E 023°32'0 0.0
2017-Nov-19 20:58N 38°01' E 023°32'0 0.0
2017-Nov-19 20:28N 38°01' E 023°32'0 0.0
2017-Nov-19 19:58N 38°01' E 023°32'0 0.0
2017-Nov-19 19:25N 38°01' E 023°32'0 0.0
2017-Nov-19 18:59N 38°01' E 023°32'0 0.0
2017-Nov-19 18:28N 38°01' E 023°32'0 0.0
2017-Nov-19 17:58N 38°01' E 023°32'0 0.0
2017-Nov-19 17:28N 38°01' E 023°32'0 0.0
2017-Nov-19 16:59N 38°01' E 023°32'0 0.0
2017-Nov-19 16:28N 38°01' E 023°32'0 0.1
2017-Nov-19 15:58N 38°01' E 023°32'0 0.0
2017-Nov-19 15:25N 38°01' E 023°32'0 0.0
2017-Nov-19 14:58N 38°01' E 023°32'0 0.0
2017-Nov-19 14:28N 38°01' E 023°32'0 0.0
2017-Nov-19 13:59N 38°01' E 023°32'0 0.0
2017-Nov-19 13:28N 38°01' E 023°32'0 0.0
2017-Nov-19 12:56N 38°01' E 023°32'0 0.0
2017-Nov-19 12:28N 38°01' E 023°32'0 0.0
2017-Nov-19 11:58N 38°01' E 023°31'0 0.0
2017-Nov-19 11:28N 38°01' E 023°32'0 0.0
2017-Nov-19 10:55N 38°01' E 023°31'0 0.0
2017-Nov-19 10:28N 38°01' E 023°31'0 0.0
2017-Nov-19 09:58N 38°01' E 023°31'0 0.1
2017-Nov-19 09:29N 38°01' E 023°31'0 0.3
2017-Nov-19 09:00N 38°01' E 023°32'4 7.7
2017-Nov-19 08:30N 37°57' E 023°33'3 6.7
2017-Nov-19 08:00N 37°55' E 023°36'1 2.2
2017-Nov-19 07:30N 37°54' E 023°36'5 9.2
2017-Nov-19 07:00N 37°50' E 023°39'611.8
2017-Nov-19 06:30N 37°45' E 023°43'611.5
2017-Nov-19 05:59N 37°40' E 023°47'  
2017-Nov-15 21:17N 37°44' E 024°18'1010.4
2017-Nov-15 20:18N 37°38' E 024°08'16 9.6
2017-Nov-15 18:41N 37°38' E 023°48'2 9.9
2017-Nov-15 18:30N 37°38' E 023°46'5 9.4
2017-Nov-15 18:00N 37°41' E 023°42'510.0
2017-Nov-15 17:30N 37°46' E 023°39'510.0
2017-Nov-15 17:00N 37°51' E 023°37'510.5
2017-Nov-15 16:30N 37°56' E 023°36'4 8.3
2017-Nov-15 16:00N 37°59' E 023°33'3 1.6
2017-Nov-15 13:54N 38°02' E 023°36'0 0.0
2017-Nov-15 13:18N 38°02' E 023°36'0 0.0
2017-Nov-15 13:00N 38°02' E 023°36'0 0.0
2017-Nov-15 11:54N 38°02' E 023°36'0 0.0
2017-Nov-15 11:30N 38°02' E 023°36'0 0.0
2017-Nov-15 10:00N 38°02' E 023°36'0 0.0
2017-Nov-15 09:00N 38°02' E 023°36'0 0.0
2017-Nov-15 08:30N 38°02' E 023°36'0 0.0
2017-Nov-15 07:54N 38°02' E 023°36'0 0.0
2017-Nov-15 06:18N 38°02' E 023°36'0 0.0
2017-Nov-15 05:54N 38°02' E 023°36'0 0.0
2017-Nov-15 05:18N 38°02' E 023°36'0 0.0
2017-Nov-15 05:00N 38°02' E 023°36'0 0.0
2017-Nov-15 04:30N 38°02' E 023°36'0 0.0
2017-Nov-15 03:48N 38°02' E 023°36'0 0.0
2017-Nov-15 03:30N 38°02' E 023°36'0 0.0
2017-Nov-15 03:00N 38°02' E 023°36'0 0.0
2017-Nov-15 02:30N 38°02' E 023°36'0 0.0
2017-Nov-15 01:54N 38°02' E 023°36'0 0.0
2017-Nov-15 01:27N 38°02' E 023°36'0 0.0
2017-Nov-15 01:00N 38°02' E 023°36'0 0.0
2017-Nov-15 00:30N 38°02' E 023°36'0 0.0
2017-Nov-14 23:51N 38°02' E 023°36'0 0.0
2017-Nov-14 23:27N 38°02' E 023°36'0 0.0
2017-Nov-14 22:57N 38°02' E 023°36'0 0.0
2017-Nov-14 22:27N 38°02' E 023°36'0 0.0
2017-Nov-14 22:00N 38°02' E 023°36'0 0.0
2017-Nov-14 21:27N 38°02' E 023°36'0 0.0
2017-Nov-14 20:57N 38°02' E 023°36'0 0.0
2017-Nov-14 18:03N 38°02' E 023°36'0 0.0
2017-Nov-14 17:34N 38°02' E 023°36'0 0.4
2017-Nov-14 17:30N 38°02' E 023°36'2 3.6
2017-Nov-14 17:00N 38°01' E 023°34'2 3.7
2017-Nov-14 16:30N 38°01' E 023°31'0 0.1
2017-Nov-14 15:59N 38°01' E 023°31'0 0.2
2017-Nov-14 15:29N 38°01' E 023°31'0 0.2
2017-Nov-14 14:59N 38°01' E 023°31'0 0.1
2017-Nov-14 14:29N 38°01' E 023°31'0 0.1
2017-Nov-14 13:59N 38°01' E 023°31'0 0.0
2017-Nov-14 13:29N 38°01' E 023°31'0 0.0
2017-Nov-14 12:59N 38°01' E 023°31'0 0.0
2017-Nov-14 12:26N 38°01' E 023°31'0 0.0
2017-Nov-14 11:59N 38°01' E 023°31'0 0.2
2017-Nov-14 11:29N 38°01' E 023°31'0 0.0
2017-Nov-14 10:59N 38°01' E 023°31'0 0.0
2017-Nov-14 10:29N 38°01' E 023°31'0 0.1
2017-Nov-14 09:58N 38°01' E 023°31'0 0.1
2017-Nov-14 09:28N 38°01' E 023°31'0 0.1
2017-Nov-14 08:58N 38°01' E 023°31'0 0.8
2017-Nov-14 08:30N 38°01' E 023°32'4 7.2
2017-Nov-14 08:01N 37°58' E 023°33'4 8.7
2017-Nov-14 07:30N 37°54' E 023°36'611.4
2017-Nov-14 07:00N 37°49' E 023°40'611.9
2017-Nov-14 06:30N 37°44' E 023°43'611.5
2017-Nov-14 06:00N 37°40' E 023°48'611.7
2017-Nov-14 05:29N 37°38' E 023°56'811.7
2017-Nov-14 04:49N 37°37' E 024°05'1111.5
2017-Nov-14 03:51N 37°44' E 024°16'811.7
2017-Nov-14 03:12N 37°49' E 024°23'  
2017-Nov-11 20:36N 38°49' E 024°04'210.6
2017-Nov-11 20:27N 38°48' E 024°06'64 9.2
2017-Nov-11 13:25N 37°44' E 024°18'2510.1
2017-Nov-11 10:58N 37°38' E 023°47'4 9.6
2017-Nov-11 10:30N 37°40' E 023°42'510.5
2017-Nov-11 10:00N 37°45' E 023°40'510.8
2017-Nov-11 09:30N 37°50' E 023°37'511.0
2017-Nov-11 09:00N 37°56' E 023°36'4 8.3
2017-Nov-11 08:31N 37°59' E 023°33'4 7.7
2017-Nov-11 08:01N 38°02' E 023°36'0 0.0
2017-Nov-11 07:24N 38°02' E 023°36'0 0.0
2017-Nov-11 06:57N 38°02' E 023°36'0 0.0
2017-Nov-11 06:27N 38°02' E 023°36'0 0.0
2017-Nov-11 05:57N 38°02' E 023°36'0 0.0
2017-Nov-11 05:30N 38°02' E 023°36'0 0.0
2017-Nov-11 04:57N 38°02' E 023°36'0 0.0
2017-Nov-11 04:15N 38°02' E 023°36'0 0.0
2017-Nov-11 03:45N 38°02' E 023°36'0 0.0
2017-Nov-11 02:45N 38°02' E 023°36'0 0.0
2017-Nov-11 02:27N 38°02' E 023°36'0 0.0
2017-Nov-11 02:00N 38°02' E 023°36'0 0.0
2017-Nov-11 01:30N 38°02' E 023°36'0 0.0
2017-Nov-11 01:00N 38°02' E 023°36'0 0.0
2017-Nov-11 00:18N 38°02' E 023°36'0 0.0
2017-Nov-11 00:00N 38°02' E 023°36'0 0.0
2017-Nov-10 23:30N 38°02' E 023°36'0 0.0
2017-Nov-10 23:00N 38°02' E 023°36'0 0.0
2017-Nov-10 22:27N 38°02' E 023°36'0 0.0
2017-Nov-10 21:57N 38°02' E 023°36'0 0.0
2017-Nov-10 21:15N 38°02' E 023°36'0 0.0
2017-Nov-10 20:57N 38°02' E 023°36'0 0.0
2017-Nov-10 20:21N 38°02' E 023°36'0 0.0
2017-Nov-10 19:51N 38°02' E 023°36'0 0.0
2017-Nov-10 19:09N 38°02' E 023°36'0 0.0
2017-Nov-10 18:39N 38°02' E 023°36'0 0.0
2017-Nov-10 18:15N 38°02' E 023°36'0 0.0
2017-Nov-10 17:51N 38°02' E 023°36'0 0.0
2017-Nov-10 13:10N 38°02' E 023°36'0 0.0
2017-Nov-10 13:00N 38°02' E 023°36'0 0.0
2017-Nov-10 12:30N 38°02' E 023°36'0 0.0
2017-Nov-10 12:00N 38°02' E 023°36'0 0.0
2017-Nov-10 11:30N 38°02' E 023°36'0 0.0
2017-Nov-10 11:00N 38°02' E 023°36'0 0.1
2017-Nov-10 10:30N 38°02' E 023°36'3 5.3
2017-Nov-10 10:00N 38°01' E 023°32'1 2.0
2017-Nov-10 09:28N 38°02' E 023°31'0 0.0
2017-Nov-10 08:58N 38°02' E 023°31'0 0.0
2017-Nov-10 08:28N 38°02' E 023°31'0 0.1
2017-Nov-10 07:58N 38°02' E 023°31'0 0.0
2017-Nov-10 07:28N 38°02' E 023°31'0 0.0
2017-Nov-10 06:58N 38°02' E 023°31'0 0.1
2017-Nov-10 06:25N 38°02' E 023°31'0 0.0
2017-Nov-10 05:58N 38°02' E 023°31'0 0.1
2017-Nov-10 05:28N 38°02' E 023°31'0 0.0
2017-Nov-10 04:58N 38°02' E 023°31'0 0.1
2017-Nov-10 04:28N 38°02' E 023°31'0 0.1
2017-Nov-10 03:58N 38°02' E 023°31'0 0.0
2017-Nov-10 03:28N 38°02' E 023°31'0 0.0
2017-Nov-10 02:58N 38°02' E 023°31'0 0.0
2017-Nov-10 02:28N 38°02' E 023°31'0 0.1
2017-Nov-10 01:58N 38°02' E 023°31'0 0.0
2017-Nov-10 01:28N 38°02' E 023°31'0 0.0
2017-Nov-10 00:58N 38°02' E 023°31'  

Dump ship's entire track history